Laguna Beach, Missouri
Current Conditions -  °F | °C
As of 6:55 AM on Saturday 20 Dec 2014 (Local Time) from KAIZ Reporting Station
Overcast Overcast  
Wind Chill: 37°   Ceiling: 1900
Heat Index: 37°   Visibility: 7mi
Dew Point: 34°   Wind: 3mph
Humidity: 87%   Direction: 150°SSE
Pressure: 30.22"   Gusts: NA
Location:  38.1262°N, 92.6898°W
Report Text: KAIZ 201255Z AUTO 15003KT 7SM OVC019 03/01 A3022 RMK AO1
Loading
Personal Weather Stations






























Interactive Weather Map New forecast layout! Learn more

10-Day Weather Forecast

Advertisements
Track Severe Weather on mobile